Latest Coastal Weather Observations for Garden Island

IDW60701

Issued at 10:32 am WST Tuesday 25 June 2024 (issued every 10 minutes, with the page automatically refreshed every 10 minutes)

About coastal observations | Map of coastal stations | Coastal observations for WA | Marine services | Other Formats
Station Details ID: 009256 Name: GARDEN ISLAND HSF Lat: -32.24 Lon: 115.68 Height: 6.0 m
Data from the previous 72 hours. | See also: Recent months at Garden Island
Date/Time
WST
Wind Sea
Height
m
Swell Vis
km
Cloud Weather Temp
°C
Press
MSL
hPa
Rain since
9am
mm
Dir  Spd
kts
Gust
kts
Height
m
Period
s
Dir
25/10:00am NE 11 14 - - - - - - - 13.2 1018.5 0.0
25/09:30am ENE 11 15 - - - - - - - 12.1 1018.8 0.0
25/09:00am ENE 12 16 - - - - - - - 11.2 1018.7 0.0
25/08:30am ENE 10 14 - - - - - - - 10.8 1018.6 0.0
25/08:00am ENE 8 11 - - - - - - - 9.4 1018.6 0.0
25/07:30am ENE 6 11 - - - - - - - 8.5 1018.8 0.0
25/07:00am ENE 7 9 - - - - - - - 8.7 1019.0 0.0
25/06:30am ENE 6 9 - - - - - - - 8.5 1019.1 0.0
25/06:00am ENE 7 9 - - - - - - - 8.1 1019.0 0.0
25/05:30am E 8 10 - - - - - - - 8.3 1019.3 0.0
25/05:00am E 7 11 - - - - - - - 8.3 1019.4 0.0
25/04:30am ENE 5 7 - - - - - - - 8.1 1019.6 0.0
25/04:00am ESE 6 8 - - - - - - - 8.7 1019.7 0.0
25/03:30am E 8 11 - - - - - - - 9.3 1019.9 0.0
25/03:00am ESE 8 12 - - - - - - - 9.1 1020.2 0.0
25/02:30am ESE 8 11 - - - - - - - 9.2 1020.6 0.0
25/02:00am ESE 9 12 - - - - - - - 9.7 1020.8 0.0
25/01:30am ESE 8 11 - - - - - - - 9.5 1020.9 0.0
25/01:00am ESE 10 13 - - - - - - - 9.2 1021.1 0.0
25/12:30am ESE 4 5 - - - - - - - 8.5 1021.4 0.0
25/12:00am ESE 5 5 - - - - - - - 9.4 1021.8 0.0
 
Date/Time
WST
Wind Sea
Height
m
Swell Vis
km
Cloud Weather Temp
°C
Press
MSL
hPa
Rain since
9am
mm
Dir  Spd
kts
Gust
kts
Height
m
Period
s
Dir
24/11:30pm ESE 6 7 - - - - - - - 10.2 1022.1 0.0
24/11:00pm E 6 7 - - - - - - - 10.1 1022.5 0.0
24/10:30pm E 6 7 - - - - - - - 10.2 1022.7 0.0
24/10:00pm E 6 8 - - - - - - - 11.0 1022.9 0.0
24/09:30pm E 6 8 - - - - - - - 11.2 1022.8 0.0
24/09:00pm ESE 8 10 - - - - - - - 12.3 1022.9 0.0
24/08:30pm ESE 9 13 - - - - - - - 12.8 1023.1 0.0
24/08:00pm SE 11 13 - - - - - - - 13.8 1023.1 0.0
24/07:30pm SSE 11 13 - - - - - - - 14.6 1023.1 0.0
24/07:00pm SE 9 11 - - - - - - - 14.4 1022.9 0.0
24/06:30pm SSE 10 11 - - - - - - - 14.6 1022.8 0.0
24/06:00pm SSE 9 12 - - - - - - - 15.2 1022.9 0.0
24/05:30pm S 10 12 - - - - - - - 15.4 1022.9 0.0
24/05:00pm S 10 13 - - - - - - - 15.6 1023.0 0.0
24/04:30pm S 10 12 - - - - - - - 15.8 1023.1 0.0
24/04:00pm S 11 13 - - - - - - - 16.0 1023.3 0.0
24/03:30pm S 11 14 - - - - - - - 16.0 1023.6 0.0
24/03:00pm S 13 15 - - - - - - - 16.0 1023.5 0.0
24/02:30pm S 10 13 - - - - - - - 15.8 1023.7 0.0
24/02:00pm S 11 15 - - - - - - - 16.0 1023.9 0.0
24/01:30pm S 10 13 - - - - - - - 16.0 1024.0 0.0
24/01:00pm SE 1 4 - - - - - - - 16.6 1024.5 0.0
24/12:30pm SE 4 6 - - - - - - - 16.4 1024.9 0.0
24/12:00pm SE 5 7 - - - - - - - 16.5 1025.3 0.0
24/11:30am SE 5 8 - - - - - - - 15.9 1026.0 0.0
24/11:00am SE 10 13 - - - - - - - 15.0 1026.5 0.0
24/10:30am SSE 7 10 - - - - - - - 14.9 1026.9 0.0
24/10:00am SSE 5 6 - - - - - - - 14.3 1027.1 0.0
24/09:30am SSE 4 6 - - - - - - - 14.0 1027.1 0.0
24/09:00am SSE 5 6 - - - - - - - 13.2 1027.1 0.0
24/08:30am SSE 5 6 - - - - - - - 12.2 1026.8 0.0
24/08:00am SSE 3 5 - - - - - - - 10.5 1026.8 0.0
24/07:30am SSE 6 7 - - - - - - - 8.9 1026.7 0.0
24/07:00am SSE 5 6 - - - - - - - 8.5 1026.6 0.0
24/06:30am SSE 5 6 - - - - - - - 9.2 1026.6 0.0
24/06:00am SSE 6 7 - - - - - - - 10.0 1026.4 0.0
24/05:30am SSE 5 7 - - - - - - - 9.9 1026.1 0.0
24/05:00am SSE 6 8 - - - - - - - 10.3 1026.2 0.0
24/04:30am SSE 6 7 - - - - - - - 9.7 1026.3 0.0
24/04:00am SSE 5 6 - - - - - - - 10.4 1026.5 0.0
24/03:30am SSE 7 8 - - - - - - - 11.7 1026.8 0.0
24/03:00am SSE 7 8 - - - - - - - 11.2 1026.8 0.0
24/02:30am SSE 6 7 - - - - - - - 11.2 1027.0 0.0
24/02:00am SSE 7 9 - - - - - - - 12.1 1027.1 0.0
24/01:30am SSE 6 8 - - - - - - - 12.0 1027.2 0.0
24/01:00am SSE 8 10 - - - - - - - 12.4 1027.3 0.0
24/12:30am SSE 9 11 - - - - - - - 12.9 1027.5 0.0
24/12:00am SSE 9 11 - - - - - - - 12.7 1027.7 0.0
 
Date/Time
WST
Wind Sea
Height
m
Swell Vis
km
Cloud Weather Temp
°C
Press
MSL
hPa
Rain since
9am
mm
Dir  Spd
kts
Gust
kts
Height
m
Period
s
Dir
23/11:30pm SSE 8 10 - - - - - - - 12.7 1027.8 0.0
23/11:00pm SSE 9 11 - - - - - - - 12.9 1027.8 0.0
23/10:30pm SSE 10 11 - - - - - - - 13.1 1027.8 0.0
23/10:00pm SSE 11 13 - - - - - - - 13.5 1027.7 0.0
23/09:30pm SSE 11 12 - - - - - - - 14.0 1027.8 0.0
23/09:00pm SSE 11 13 - - - - - - - 14.3 1027.9 0.0
23/08:30pm SSE 12 14 - - - - - - - 14.4 1027.7 0.0
23/08:00pm SSE 13 15 - - - - - - - 14.7 1027.7 0.0
23/07:30pm SSE 13 16 - - - - - - - 15.3 1027.6 0.0
23/07:00pm SSE 12 14 - - - - - - - 15.6 1027.5 0.0
23/06:30pm SSE 11 13 - - - - - - - 15.6 1027.2 0.0
23/06:00pm SSE 10 13 - - - - - - - 15.8 1027.1 0.0
23/05:30pm SSE 12 16 - - - - - - - 15.9 1026.8 0.0
23/05:00pm S 13 15 - - - - - - - 16.2 1026.6 0.0
23/04:30pm S 13 15 - - - - - - - 16.5 1026.6 0.0
23/04:00pm S 10 13 - - - - - - - 16.4 1026.7 0.0
23/03:30pm S 12 15 - - - - - - - 16.4 1026.5 0.0
23/03:00pm S 13 17 - - - - - - - 16.4 1026.6 0.0
23/02:30pm S 13 16 - - - - - - - 16.4 1026.4 0.0
23/02:00pm S 12 15 - - - - - - - 16.2 1026.5 0.0
23/01:30pm S 12 14 - - - - - - - 16.2 1026.8 0.0
23/01:00pm S 10 13 - - - - - - - 16.2 1026.9 0.0
23/12:30pm S 10 13 - - - - - - - 15.6 1027.3 0.0
23/12:00pm S 10 12 - - - - - - - 15.4 1027.6 0.0
23/11:30am SSE 12 15 - - - - - - - 15.5 1027.9 0.0
23/11:00am S 7 9 - - - - - - - 14.8 1028.3 0.0
23/10:30am SSE 8 10 - - - - - - - 14.9 1028.2 0.0
23/10:00am SE 9 11 - - - - - - - 14.8 1028.3 0.0
23/09:30am E 6 7 - - - - - - - 14.6 1027.9 0.0
23/09:00am NE 5 7 - - - - - - - 13.3 1027.5 0.0
23/08:30am NE 5 8 - - - - - - - 13.6 1027.4 0.0
23/08:00am NE 6 8 - - - - - - - 12.8 1026.9 0.0
23/07:30am NE 6 8 - - - - - - - 12.4 1026.6 0.0
23/07:00am ESE 6 7 - - - - - - - 11.2 1026.3 0.0
23/06:30am ESE 5 7 - - - - - - - 11.4 1026.0 0.0
23/06:00am ESE 5 6 - - - - - - - 11.4 1025.8 0.0
23/05:30am SE 7 11 - - - - - - - 12.7 1025.6 0.0
23/05:00am ESE 4 9 - - - - - - - 12.9 1025.5 0.0
23/04:30am ENE 5 6 - - - - - - - 11.5 1025.4 0.0
23/04:00am E 6 8 - - - - - - - 11.7 1025.5 0.0
23/03:30am E 5 7 - - - - - - - 12.4 1025.4 0.0
23/03:00am SE 10 13 - - - - - - - 13.8 1025.4 0.0
23/02:30am SE 6 8 - - - - - - - 14.0 1025.3 0.0
23/02:00am SE 10 12 - - - - - - - 14.8 1025.4 0.0
23/01:30am SSE 10 14 - - - - - - - 15.8 1025.1 0.0
23/01:08am SSW 9 20 - - - - - - - 16.7 1024.8 0.0
23/01:00am SW 5 7 - - - - - - - 15.7 1024.9 0.0
23/12:30am SSW 15 25 - - - - - - - 16.5 1024.8 0.0
23/12:00am SSW 16 20 - - - - - - - 16.7 1024.7 0.0
 
Date/Time
WST
Wind Sea
Height
m
Swell Vis
km
Cloud Weather Temp
°C
Press
MSL
hPa
Rain since
9am
mm
Dir  Spd
kts
Gust
kts
Height
m
Period
s
Dir
22/11:30pm SSW 17 21 - - - - - - - 17.1 1024.8 0.0
22/11:00pm SSW 14 21 - - - - - - - 17.0 1024.7 0.0
22/10:30pm SSW 16 21 - - - - - - - 16.9 1024.7 0.0
22/10:00pm SW 12 16 - - - - - - - 16.8 1024.6 0.0
22/09:30pm SSW 18 23 - - - - - - - 16.7 1024.4 0.0
22/09:00pm SSW 17 21 - - - - - - - 16.7 1024.1 0.0
22/08:30pm SSW 18 24 - - - - - - - 16.8 1023.9 0.0
22/08:00pm SSW 18 22 - - - - - - - 16.7 1023.7 0.0
22/07:30pm SSW 18 23 - - - - - - - 16.7 1023.4 0.0
22/07:00pm SSW 18 23 - - - - - - - 16.5 1023.2 0.0
22/06:30pm SSW 20 25 - - - - - - - 16.6 1022.7 0.0
22/06:00pm S 20 23 - - - - - - - 16.8 1022.3 0.0
22/05:30pm SSW 19 25 - - - - - - - 16.7 1021.9 0.0
22/05:00pm SSW 21 27 - - - - - - - 16.7 1021.8 0.0
22/04:30pm SSW 20 23 - - - - - - - 16.8 1021.5 0.0
22/04:00pm SW 19 25 - - - - - - - 17.0 1021.1 0.0
22/03:30pm SW 18 24 - - - - - - - 17.1 1020.9 0.0
22/03:00pm SSW 21 25 - - - - - - - 17.4 1020.6 0.0
22/02:30pm SSW 18 24 - - - - - - - 17.5 1020.5 0.0
22/02:00pm SSW 20 26 - - - - - - - 17.2 1020.5 0.0
22/01:30pm SW 20 25 - - - - - - - 17.1 1020.5 0.0
22/01:00pm SSW 22 27 - - - - - - - 17.2 1020.6 0.0
22/12:30pm SSW 19 24 - - - - - - - 16.4 1020.8 0.0
22/12:00pm SW 22 31 - - - - - - - 17.5 1020.7 0.0
22/11:30am SW 22 29 - - - - - - - 17.5 1020.8 0.0
22/11:00am SW 20 28 - - - - - - - 17.7 1020.7 0.0
22/10:44am SW 17 28 - - - - - - - 18.1 1020.6 0.0

Other formats

Comma delimited format used in spreadsheet applications
http://www.bom.gov.au/fwo/IDW60701/IDW60701.95607.axf

JavaScript Object Notation format (JSON) in row-major order
http://www.bom.gov.au/fwo/IDW60701/IDW60701.95607.json

Data quality

Most of these data are generated automatically and are frequently updated. Quality checks on data are not normally performed. It is possible for incorrect values to appear. Refer to information at About Latest Weather Observations and please check the disclaimer before using these data.